sensor_id;sensor_type;location;lat;lon;timestamp;temperature;humidity
40738;DHT22;54759;48.094;-1.628;2023-03-31T00:02:51;21.50;75.50
40738;DHT22;54759;48.094;-1.628;2023-03-31T00:05:54;21.60;75.40
40738;DHT22;54759;48.094;-1.628;2023-03-31T00:08:56;21.50;75.40
40738;DHT22;54759;48.094;-1.628;2023-03-31T00:12:03;21.60;75.00
40738;DHT22;54759;48.094;-1.628;2023-03-31T00:15:05;21.50;75.20
40738;DHT22;54759;48.094;-1.628;2023-03-31T00:18:08;21.60;75.40
40738;DHT22;54759;48.094;-1.628;2023-03-31T00:21:12;21.60;75.60
40738;DHT22;54759;48.094;-1.628;2023-03-31T00:24:15;21.90;75.40
40738;DHT22;54759;48.094;-1.628;2023-03-31T00:27:16;21.50;75.30
40738;DHT22;54759;48.094;-1.628;2023-03-31T00:30:18;21.50;75.10
40738;DHT22;54759;48.094;-1.628;2023-03-31T00:33:20;22.10;75.90
40738;DHT22;54759;48.094;-1.628;2023-03-31T00:36:22;21.50;75.30
40738;DHT22;54759;48.094;-1.628;2023-03-31T00:39:28;21.50;75.10
40738;DHT22;54759;48.094;-1.628;2023-03-31T00:42:32;21.70;74.90
40738;DHT22;54759;48.094;-1.628;2023-03-31T00:45:34;21.50;74.70
40738;DHT22;54759;48.094;-1.628;2023-03-31T00:48:36;21.50;74.30
40738;DHT22;54759;48.094;-1.628;2023-03-31T00:51:38;21.40;74.60
40738;DHT22;54759;48.094;-1.628;2023-03-31T00:54:41;21.60;74.20
40738;DHT22;54759;48.094;-1.628;2023-03-31T00:57:45;21.40;74.20
40738;DHT22;54759;48.094;-1.628;2023-03-31T01:00:49;21.50;74.00
40738;DHT22;54759;48.094;-1.628;2023-03-31T01:03:53;21.70;74.00
40738;DHT22;54759;48.094;-1.628;2023-03-31T01:07:01;21.50;74.20
40738;DHT22;54759;48.094;-1.628;2023-03-31T01:10:04;21.50;74.00
40738;DHT22;54759;48.094;-1.628;2023-03-31T01:13:07;21.60;73.70
40738;DHT22;54759;48.094;-1.628;2023-03-31T01:16:10;21.20;73.80
40738;DHT22;54759;48.094;-1.628;2023-03-31T01:19:17;21.30;74.00
40738;DHT22;54759;48.094;-1.628;2023-03-31T01:22:41;21.50;73.40
40738;DHT22;54759;48.094;-1.628;2023-03-31T01:29:35;21.50;74.30
40738;DHT22;54759;48.094;-1.628;2023-03-31T01:33:02;21.50;74.30
40738;DHT22;54759;48.094;-1.628;2023-03-31T01:36:30;21.50;74.40
40738;DHT22;54759;48.094;-1.628;2023-03-31T01:39:50;21.50;74.50
40738;DHT22;54759;48.094;-1.628;2023-03-31T01:43:01;21.50;74.50
40738;DHT22;54759;48.094;-1.628;2023-03-31T01:46:09;21.40;74.20
40738;DHT22;54759;48.094;-1.628;2023-03-31T01:49:18;21.40;74.20
40738;DHT22;54759;48.094;-1.628;2023-03-31T01:52:26;21.40;74.20
40738;DHT22;54759;48.094;-1.628;2023-03-31T01:55:34;21.40;74.10
40738;DHT22;54759;48.094;-1.628;2023-03-31T01:58:39;21.40;73.90
40738;DHT22;54759;48.094;-1.628;2023-03-31T02:01:45;21.70;73.90
40738;DHT22;54759;48.094;-1.628;2023-03-31T02:04:53;21.50;73.70
40738;DHT22;54759;48.094;-1.628;2023-03-31T02:08:00;21.40;73.70
40738;DHT22;54759;48.094;-1.628;2023-03-31T02:11:05;21.40;73.70
40738;DHT22;54759;48.094;-1.628;2023-03-31T02:14:09;21.40;73.80
40738;DHT22;54759;48.094;-1.628;2023-03-31T02:17:16;21.30;73.50
40738;DHT22;54759;48.094;-1.628;2023-03-31T02:20:21;21.60;73.80
40738;DHT22;54759;48.094;-1.628;2023-03-31T02:23:27;21.30;73.70
40738;DHT22;54759;48.094;-1.628;2023-03-31T02:26:36;21.40;73.60
40738;DHT22;54759;48.094;-1.628;2023-03-31T02:29:39;21.40;73.80
40738;DHT22;54759;48.094;-1.628;2023-03-31T02:32:43;21.30;74.00
40738;DHT22;54759;48.094;-1.628;2023-03-31T02:35:46;21.30;73.50
40738;DHT22;54759;48.094;-1.628;2023-03-31T02:38:51;21.30;73.60
40738;DHT22;54759;48.094;-1.628;2023-03-31T02:41:55;21.40;73.30
40738;DHT22;54759;48.094;-1.628;2023-03-31T02:45:02;21.30;73.20
40738;DHT22;54759;48.094;-1.628;2023-03-31T02:48:05;21.40;72.90
40738;DHT22;54759;48.094;-1.628;2023-03-31T02:58:19;21.50;72.30
40738;DHT22;54759;48.094;-1.628;2023-03-31T03:01:39;21.30;72.10
40738;DHT22;54759;48.094;-1.628;2023-03-31T03:04:58;21.20;71.90
40738;DHT22;54759;48.094;-1.628;2023-03-31T03:08:11;21.20;71.90
40738;DHT22;54759;48.094;-1.628;2023-03-31T03:14:27;21.30;68.90
40738;DHT22;54759;48.094;-1.628;2023-03-31T03:17:34;21.30;71.60
40738;DHT22;54759;48.094;-1.628;2023-03-31T03:20:36;21.30;71.50
40738;DHT22;54759;48.094;-1.628;2023-03-31T03:23:39;21.30;71.50
40738;DHT22;54759;48.094;-1.628;2023-03-31T03:26:40;21.30;71.60
40738;DHT22;54759;48.094;-1.628;2023-03-31T03:29:42;21.20;71.50
40738;DHT22;54759;48.094;-1.628;2023-03-31T03:32:44;21.30;71.30
40738;DHT22;54759;48.094;-1.628;2023-03-31T03:35:46;21.30;71.40
40738;DHT22;54759;48.094;-1.628;2023-03-31T03:38:47;21.20;71.10
40738;DHT22;54759;48.094;-1.628;2023-03-31T03:41:49;21.20;71.70
40738;DHT22;54759;48.094;-1.628;2023-03-31T03:44:50;21.20;71.60
40738;DHT22;54759;48.094;-1.628;2023-03-31T03:47:52;21.10;71.90
40738;DHT22;54759;48.094;-1.628;2023-03-31T03:50:53;21.20;72.20
40738;DHT22;54759;48.094;-1.628;2023-03-31T03:53:55;21.20;71.80
40738;DHT22;54759;48.094;-1.628;2023-03-31T03:56:57;21.30;71.60
40738;DHT22;54759;48.094;-1.628;2023-03-31T03:59:59;21.20;71.40
40738;DHT22;54759;48.094;-1.628;2023-03-31T04:03:00;21.20;71.40
40738;DHT22;54759;48.094;-1.628;2023-03-31T04:06:01;21.40;71.50
40738;DHT22;54759;48.094;-1.628;2023-03-31T04:09:03;21.20;71.90
40738;DHT22;54759;48.094;-1.628;2023-03-31T04:12:05;21.30;71.20
40738;DHT22;54759;48.094;-1.628;2023-03-31T04:15:09;21.10;71.40
40738;DHT22;54759;48.094;-1.628;2023-03-31T04:18:12;21.20;71.10
40738;DHT22;54759;48.094;-1.628;2023-03-31T04:21:19;21.30;71.20
40738;DHT22;54759;48.094;-1.628;2023-03-31T04:24:24;21.50;71.40
40738;DHT22;54759;48.094;-1.628;2023-03-31T04:27:30;21.10;70.90
40738;DHT22;54759;48.094;-1.628;2023-03-31T04:30:34;21.20;71.40
40738;DHT22;54759;48.094;-1.628;2023-03-31T04:33:39;21.10;71.40
40738;DHT22;54759;48.094;-1.628;2023-03-31T04:36:42;21.20;71.50
40738;DHT22;54759;48.094;-1.628;2023-03-31T04:39:46;21.10;71.30
40738;DHT22;54759;48.094;-1.628;2023-03-31T04:42:50;21.10;71.50
40738;DHT22;54759;48.094;-1.628;2023-03-31T04:45:52;21.10;71.50
40738;DHT22;54759;48.094;-1.628;2023-03-31T04:48:55;21.30;71.90
40738;DHT22;54759;48.094;-1.628;2023-03-31T04:52:02;21.10;71.70
40738;DHT22;54759;48.094;-1.628;2023-03-31T04:55:06;21.00;71.70
40738;DHT22;54759;48.094;-1.628;2023-03-31T04:58:07;21.20;71.80
40738;DHT22;54759;48.094;-1.628;2023-03-31T05:01:10;21.10;71.80
40738;DHT22;54759;48.094;-1.628;2023-03-31T05:04:13;21.50;71.90
40738;DHT22;54759;48.094;-1.628;2023-03-31T05:07:15;21.40;71.80
40738;DHT22;54759;48.094;-1.628;2023-03-31T05:10:17;21.10;71.70
40738;DHT22;54759;48.094;-1.628;2023-03-31T05:13:19;21.20;71.20
40738;DHT22;54759;48.094;-1.628;2023-03-31T05:16:21;21.20;71.90
40738;DHT22;54759;48.094;-1.628;2023-03-31T05:19:25;21.10;72.30
40738;DHT22;54759;48.094;-1.628;2023-03-31T05:22:26;21.10;71.80
40738;DHT22;54759;48.094;-1.628;2023-03-31T05:25:28;21.10;72.20
40738;DHT22;54759;48.094;-1.628;2023-03-31T05:28:33;21.10;72.00
40738;DHT22;54759;48.094;-1.628;2023-03-31T05:31:35;21.10;72.20
40738;DHT22;54759;48.094;-1.628;2023-03-31T05:34:36;21.40;72.40
40738;DHT22;54759;48.094;-1.628;2023-03-31T05:37:39;21.20;72.40
40738;DHT22;54759;48.094;-1.628;2023-03-31T05:40:43;21.10;72.50
40738;DHT22;54759;48.094;-1.628;2023-03-31T05:43:47;21.00;72.60
40738;DHT22;54759;48.094;-1.628;2023-03-31T05:46:49;21.20;72.80
40738;DHT22;54759;48.094;-1.628;2023-03-31T05:49:53;21.10;73.10
40738;DHT22;54759;48.094;-1.628;2023-03-31T05:52:56;21.60;69.80
40738;DHT22;54759;48.094;-1.628;2023-03-31T05:56:00;21.20;73.20
40738;DHT22;54759;48.094;-1.628;2023-03-31T06:02:06;21.10;69.30
40738;DHT22;54759;48.094;-1.628;2023-03-31T06:05:09;21.20;73.30
40738;DHT22;54759;48.094;-1.628;2023-03-31T06:08:10;21.20;73.50
40738;DHT22;54759;48.094;-1.628;2023-03-31T06:11:14;21.20;73.20
40738;DHT22;54759;48.094;-1.628;2023-03-31T06:14:16;21.20;72.70
40738;DHT22;54759;48.094;-1.628;2023-03-31T06:17:18;21.10;73.20
40738;DHT22;54759;48.094;-1.628;2023-03-31T06:20:20;20.70;73.10
40738;DHT22;54759;48.094;-1.628;2023-03-31T06:23:29;21.20;73.00
40738;DHT22;54759;48.094;-1.628;2023-03-31T06:26:31;21.20;73.30
40738;DHT22;54759;48.094;-1.628;2023-03-31T06:29:38;21.10;73.00
40738;DHT22;54759;48.094;-1.628;2023-03-31T06:32:40;21.00;73.20
40738;DHT22;54759;48.094;-1.628;2023-03-31T06:35:44;21.40;73.40
40738;DHT22;54759;48.094;-1.628;2023-03-31T06:38:45;21.10;73.50
40738;DHT22;54759;48.094;-1.628;2023-03-31T06:41:49;21.00;73.30
40738;DHT22;54759;48.094;-1.628;2023-03-31T06:44:59;21.10;73.30
40738;DHT22;54759;48.094;-1.628;2023-03-31T06:48:02;21.10;73.20
40738;DHT22;54759;48.094;-1.628;2023-03-31T06:51:05;21.10;73.30
40738;DHT22;54759;48.094;-1.628;2023-03-31T06:54:07;21.10;73.10
40738;DHT22;54759;48.094;-1.628;2023-03-31T06:57:08;21.20;73.30
40738;DHT22;54759;48.094;-1.628;2023-03-31T07:00:11;21.20;73.00
40738;DHT22;54759;48.094;-1.628;2023-03-31T07:03:14;21.40;73.20
40738;DHT22;54759;48.094;-1.628;2023-03-31T07:06:18;21.20;72.60
40738;DHT22;54759;48.094;-1.628;2023-03-31T07:09:21;21.20;74.10
40738;DHT22;54759;48.094;-1.628;2023-03-31T07:12:23;21.20;73.20
40738;DHT22;54759;48.094;-1.628;2023-03-31T07:15:25;21.20;73.50
40738;DHT22;54759;48.094;-1.628;2023-03-31T07:18:28;21.20;73.50
40738;DHT22;54759;48.094;-1.628;2023-03-31T07:21:32;21.30;73.70
40738;DHT22;54759;48.094;-1.628;2023-03-31T07:24:33;21.20;73.60
40738;DHT22;54759;48.094;-1.628;2023-03-31T07:27:37;21.70;74.10
40738;DHT22;54759;48.094;-1.628;2023-03-31T07:30:40;21.30;73.60
40738;DHT22;54759;48.094;-1.628;2023-03-31T07:33:42;21.40;73.70
40738;DHT22;54759;48.094;-1.628;2023-03-31T07:36:44;21.30;73.40
40738;DHT22;54759;48.094;-1.628;2023-03-31T07:39:45;21.30;74.00
40738;DHT22;54759;48.094;-1.628;2023-03-31T07:42:50;21.40;73.40
40738;DHT22;54759;48.094;-1.628;2023-03-31T07:45:52;21.50;73.90
40738;DHT22;54759;48.094;-1.628;2023-03-31T07:48:54;21.40;73.90
40738;DHT22;54759;48.094;-1.628;2023-03-31T07:51:56;21.80;74.20
40738;DHT22;54759;48.094;-1.628;2023-03-31T07:54:57;21.20;73.70
40738;DHT22;54759;48.094;-1.628;2023-03-31T07:57:59;21.30;73.90
40738;DHT22;54759;48.094;-1.628;2023-03-31T08:01:01;21.40;73.50
40738;DHT22;54759;48.094;-1.628;2023-03-31T08:04:06;21.30;73.40
40738;DHT22;54759;48.094;-1.628;2023-03-31T08:07:13;21.70;70.10
40738;DHT22;54759;48.094;-1.628;2023-03-31T08:10:16;21.20;73.30
40738;DHT22;54759;48.094;-1.628;2023-03-31T08:13:20;21.40;73.30
40738;DHT22;54759;48.094;-1.628;2023-03-31T08:16:22;21.30;73.10
40738;DHT22;54759;48.094;-1.628;2023-03-31T08:19:27;21.40;72.90
40738;DHT22;54759;48.094;-1.628;2023-03-31T08:22:28;21.50;73.20
40738;DHT22;54759;48.094;-1.628;2023-03-31T08:25:30;21.60;73.00
40738;DHT22;54759;48.094;-1.628;2023-03-31T08:28:31;21.40;72.90
40738;DHT22;54759;48.094;-1.628;2023-03-31T08:31:33;21.30;72.40
40738;DHT22;54759;48.094;-1.628;2023-03-31T08:34:35;21.40;72.70
40738;DHT22;54759;48.094;-1.628;2023-03-31T08:37:38;21.50;73.00
40738;DHT22;54759;48.094;-1.628;2023-03-31T08:40:40;21.60;72.70
40738;DHT22;54759;48.094;-1.628;2023-03-31T08:43:44;21.70;72.30
40738;DHT22;54759;48.094;-1.628;2023-03-31T08:46:49;21.50;72.00
40738;DHT22;54759;48.094;-1.628;2023-03-31T08:49:55;21.60;71.40
40738;DHT22;54759;48.094;-1.628;2023-03-31T08:53:04;21.60;71.80
40738;DHT22;54759;48.094;-1.628;2023-03-31T08:56:12;21.90;71.80
40738;DHT22;54759;48.094;-1.628;2023-03-31T08:59:21;21.40;71.40
40738;DHT22;54759;48.094;-1.628;2023-03-31T09:02:30;21.60;71.40
40738;DHT22;54759;48.094;-1.628;2023-03-31T09:05:42;21.80;71.60
40738;DHT22;54759;48.094;-1.628;2023-03-31T09:09:02;21.50;71.30
40738;DHT22;54759;48.094;-1.628;2023-03-31T09:12:12;21.60;71.20
40738;DHT22;54759;48.094;-1.628;2023-03-31T09:15:23;21.60;71.20
40738;DHT22;54759;48.094;-1.628;2023-03-31T09:18:29;21.60;71.30
40738;DHT22;54759;48.094;-1.628;2023-03-31T09:21:34;21.60;71.30
40738;DHT22;54759;48.094;-1.628;2023-03-31T09:24:46;21.50;71.30
40738;DHT22;54759;48.094;-1.628;2023-03-31T09:27:49;21.70;71.40
40738;DHT22;54759;48.094;-1.628;2023-03-31T09:30:53;21.70;71.60
40738;DHT22;54759;48.094;-1.628;2023-03-31T09:33:59;21.60;71.60
40738;DHT22;54759;48.094;-1.628;2023-03-31T09:37:02;21.60;71.40
40738;DHT22;54759;48.094;-1.628;2023-03-31T09:40:05;21.70;71.70
40738;DHT22;54759;48.094;-1.628;2023-03-31T09:43:14;21.70;71.60
40738;DHT22;54759;48.094;-1.628;2023-03-31T09:46:27;21.60;71.50
40738;DHT22;54759;48.094;-1.628;2023-03-31T09:49:33;21.90;71.60
40738;DHT22;54759;48.094;-1.628;2023-03-31T09:52:38;21.60;71.40
40738;DHT22;54759;48.094;-1.628;2023-03-31T09:55:44;21.80;71.50
40738;DHT22;54759;48.094;-1.628;2023-03-31T09:58:47;21.70;71.60
40738;DHT22;54759;48.094;-1.628;2023-03-31T10:01:49;21.70;71.80
40738;DHT22;54759;48.094;-1.628;2023-03-31T10:04:52;21.70;72.10
40738;DHT22;54759;48.094;-1.628;2023-03-31T10:07:54;21.70;72.10
40738;DHT22;54759;48.094;-1.628;2023-03-31T10:11:12;21.50;72.10
40738;DHT22;54759;48.094;-1.628;2023-03-31T10:17:21;21.70;67.90
40738;DHT22;54759;48.094;-1.628;2023-03-31T10:20:31;21.70;67.90
40738;DHT22;54759;48.094;-1.628;2023-03-31T10:23:34;21.60;71.60
40738;DHT22;54759;48.094;-1.628;2023-03-31T10:26:39;21.50;71.30
40738;DHT22;54759;48.094;-1.628;2023-03-31T10:29:41;21.70;71.10
40738;DHT22;54759;48.094;-1.628;2023-03-31T10:32:43;21.60;71.00
40738;DHT22;54759;48.094;-1.628;2023-03-31T10:35:55;21.80;71.00
40738;DHT22;54759;48.094;-1.628;2023-03-31T10:38:58;21.80;70.80
40738;DHT22;54759;48.094;-1.628;2023-03-31T10:42:02;21.70;70.60
40738;DHT22;54759;48.094;-1.628;2023-03-31T10:45:22;21.70;70.80
40738;DHT22;54759;48.094;-1.628;2023-03-31T10:48:40;21.70;70.90
40738;DHT22;54759;48.094;-1.628;2023-03-31T10:51:48;21.80;71.40
40738;DHT22;54759;48.094;-1.628;2023-03-31T10:54:54;21.80;70.90
40738;DHT22;54759;48.094;-1.628;2023-03-31T10:58:01;21.80;70.70
40738;DHT22;54759;48.094;-1.628;2023-03-31T11:01:14;21.70;70.70
40738;DHT22;54759;48.094;-1.628;2023-03-31T11:04:31;21.80;70.80
40738;DHT22;54759;48.094;-1.628;2023-03-31T11:07:48;22.20;71.10
40738;DHT22;54759;48.094;-1.628;2023-03-31T11:11:01;21.80;71.10
40738;DHT22;54759;48.094;-1.628;2023-03-31T11:14:11;21.80;71.20
40738;DHT22;54759;48.094;-1.628;2023-03-31T11:17:25;21.80;70.80
40738;DHT22;54759;48.094;-1.628;2023-03-31T11:20:35;21.80;71.40
40738;DHT22;54759;48.094;-1.628;2023-03-31T11:23:40;21.80;71.60
40738;DHT22;54759;48.094;-1.628;2023-03-31T11:26:48;21.80;71.80
40738;DHT22;54759;48.094;-1.628;2023-03-31T11:29:55;21.80;71.70
40738;DHT22;54759;48.094;-1.628;2023-03-31T11:33:12;21.90;71.70
40738;DHT22;54759;48.094;-1.628;2023-03-31T11:36:30;22.00;71.70
40738;DHT22;54759;48.094;-1.628;2023-03-31T11:39:44;21.90;71.60
40738;DHT22;54759;48.094;-1.628;2023-03-31T11:42:53;21.80;71.40
40738;DHT22;54759;48.094;-1.628;2023-03-31T11:46:09;21.70;71.20
40738;DHT22;54759;48.094;-1.628;2023-03-31T11:49:17;22.20;71.30
40738;DHT22;54759;48.094;-1.628;2023-03-31T11:52:24;21.90;71.10
40738;DHT22;54759;48.094;-1.628;2023-03-31T11:55:29;21.90;71.30
40738;DHT22;54759;48.094;-1.628;2023-03-31T11:58:35;21.70;71.20
40738;DHT22;54759;48.094;-1.628;2023-03-31T12:01:43;21.80;71.20
40738;DHT22;54759;48.094;-1.628;2023-03-31T12:04:49;21.80;71.40
40738;DHT22;54759;48.094;-1.628;2023-03-31T12:07:58;21.70;71.40
40738;DHT22;54759;48.094;-1.628;2023-03-31T12:11:04;21.90;71.60
40738;DHT22;54759;48.094;-1.628;2023-03-31T12:14:19;21.90;71.80
40738;DHT22;54759;48.094;-1.628;2023-03-31T12:17:26;21.70;71.50
40738;DHT22;54759;48.094;-1.628;2023-03-31T12:20:33;21.80;71.70
40738;DHT22;54759;48.094;-1.628;2023-03-31T12:23:42;21.80;71.80
40738;DHT22;54759;48.094;-1.628;2023-03-31T12:26:52;22.00;71.80
40738;DHT22;54759;48.094;-1.628;2023-03-31T12:30:00;21.80;71.80
40738;DHT22;54759;48.094;-1.628;2023-03-31T12:33:06;21.80;72.10
40738;DHT22;54759;48.094;-1.628;2023-03-31T12:36:23;21.80;72.20
40738;DHT22;54759;48.094;-1.628;2023-03-31T12:39:37;21.90;72.40
40738;DHT22;54759;48.094;-1.628;2023-03-31T12:42:57;21.80;72.40
40738;DHT22;54759;48.094;-1.628;2023-03-31T12:46:09;21.80;72.40
40738;DHT22;54759;48.094;-1.628;2023-03-31T12:49:28;21.70;72.30
40738;DHT22;54759;48.094;-1.628;2023-03-31T12:52:42;21.90;72.50
40738;DHT22;54759;48.094;-1.628;2023-03-31T12:55:46;21.80;72.70
40738;DHT22;54759;48.094;-1.628;2023-03-31T12:58:49;21.40;72.60
40738;DHT22;54759;48.094;-1.628;2023-03-31T13:05:44;22.30;73.70
40738;DHT22;54759;48.094;-1.628;2023-03-31T13:08:53;21.70;73.20
40738;DHT22;54759;48.094;-1.628;2023-03-31T13:11:56;21.80;73.20
40738;DHT22;54759;48.094;-1.628;2023-03-31T13:14:57;22.10;73.50
40738;DHT22;54759;48.094;-1.628;2023-03-31T13:18:01;21.60;73.30
40738;DHT22;54759;48.094;-1.628;2023-03-31T13:21:05;21.90;73.30
40738;DHT22;54759;48.094;-1.628;2023-03-31T13:24:11;21.90;73.20
40738;DHT22;54759;48.094;-1.628;2023-03-31T13:27:29;22.00;73.00
40738;DHT22;54759;48.094;-1.628;2023-03-31T13:30:47;21.70;72.70
40738;DHT22;54759;48.094;-1.628;2023-03-31T13:33:53;22.30;72.70
40738;DHT22;54759;48.094;-1.628;2023-03-31T13:37:09;22.40;72.50
40738;DHT22;54759;48.094;-1.628;2023-03-31T13:40:24;22.00;72.00
40738;DHT22;54759;48.094;-1.628;2023-03-31T13:43:47;22.00;71.80
40738;DHT22;54759;48.094;-1.628;2023-03-31T13:47:17;22.00;71.50
40738;DHT22;54759;48.094;-1.628;2023-03-31T13:50:41;21.90;71.50
40738;DHT22;54759;48.094;-1.628;2023-03-31T13:54:06;21.90;71.20
40738;DHT22;54759;48.094;-1.628;2023-03-31T13:57:30;22.10;71.20
40738;DHT22;54759;48.094;-1.628;2023-03-31T14:00:44;21.90;70.90
40738;DHT22;54759;48.094;-1.628;2023-03-31T14:03:57;21.90;70.70
40738;DHT22;54759;48.094;-1.628;2023-03-31T14:07:06;22.00;70.70
40738;DHT22;54759;48.094;-1.628;2023-03-31T14:10:21;22.00;70.70
40738;DHT22;54759;48.094;-1.628;2023-03-31T14:13:24;21.90;70.50
40738;DHT22;54759;48.094;-1.628;2023-03-31T14:16:26;22.00;70.90
40738;DHT22;54759;48.094;-1.628;2023-03-31T14:19:48;21.90;70.60
40738;DHT22;54759;48.094;-1.628;2023-03-31T14:23:02;21.90;70.60
40738;DHT22;54759;48.094;-1.628;2023-03-31T14:26:12;22.10;70.80
40738;DHT22;54759;48.094;-1.628;2023-03-31T14:29:19;21.90;70.70
40738;DHT22;54759;48.094;-1.628;2023-03-31T14:32:28;21.90;70.60
40738;DHT22;54759;48.094;-1.628;2023-03-31T14:35:33;22.00;70.60
40738;DHT22;54759;48.094;-1.628;2023-03-31T14:38:38;22.00;70.40
40738;DHT22;54759;48.094;-1.628;2023-03-31T14:41:40;22.00;70.50
40738;DHT22;54759;48.094;-1.628;2023-03-31T14:44:44;22.00;70.70
40738;DHT22;54759;48.094;-1.628;2023-03-31T14:47:54;21.90;70.40
40738;DHT22;54759;48.094;-1.628;2023-03-31T14:50:57;22.00;69.90
40738;DHT22;54759;48.094;-1.628;2023-03-31T14:54:00;22.00;69.80
40738;DHT22;54759;48.094;-1.628;2023-03-31T14:57:02;22.00;69.80
40738;DHT22;54759;48.094;-1.628;2023-03-31T15:00:06;22.10;69.60
40738;DHT22;54759;48.094;-1.628;2023-03-31T15:03:13;22.30;69.70
40738;DHT22;54759;48.094;-1.628;2023-03-31T15:06:15;22.10;69.50
40738;DHT22;54759;48.094;-1.628;2023-03-31T15:09:20;22.10;69.60
40738;DHT22;54759;48.094;-1.628;2023-03-31T15:12:23;22.10;69.50
40738;DHT22;54759;48.094;-1.628;2023-03-31T15:15:26;22.00;69.40
40738;DHT22;54759;48.094;-1.628;2023-03-31T15:18:27;22.00;69.40
40738;DHT22;54759;48.094;-1.628;2023-03-31T15:21:31;22.00;69.20
40738;DHT22;54759;48.094;-1.628;2023-03-31T15:24:36;22.00;69.10
40738;DHT22;54759;48.094;-1.628;2023-03-31T15:27:42;22.10;69.00
40738;DHT22;54759;48.094;-1.628;2023-03-31T15:30:47;21.90;68.90
40738;DHT22;54759;48.094;-1.628;2023-03-31T15:33:53;22.00;68.70
40738;DHT22;54759;48.094;-1.628;2023-03-31T15:36:55;22.00;69.00
40738;DHT22;54759;48.094;-1.628;2023-03-31T15:39:59;22.00;69.00
40738;DHT22;54759;48.094;-1.628;2023-03-31T15:43:06;22.30;68.90
40738;DHT22;54759;48.094;-1.628;2023-03-31T15:46:48;21.90;68.70
40738;DHT22;54759;48.094;-1.628;2023-03-31T15:49:52;22.00;68.70
40738;DHT22;54759;48.094;-1.628;2023-03-31T15:52:55;22.00;68.50
40738;DHT22;54759;48.094;-1.628;2023-03-31T15:55:58;22.00;68.50
40738;DHT22;54759;48.094;-1.628;2023-03-31T15:59:02;22.00;68.20
40738;DHT22;54759;48.094;-1.628;2023-03-31T16:02:04;22.00;68.10
40738;DHT22;54759;48.094;-1.628;2023-03-31T16:05:24;22.10;68.60
40738;DHT22;54759;48.094;-1.628;2023-03-31T16:08:37;22.00;68.40
40738;DHT22;54759;48.094;-1.628;2023-03-31T16:11:43;22.00;68.40
40738;DHT22;54759;48.094;-1.628;2023-03-31T16:14:49;22.40;68.90
40738;DHT22;54759;48.094;-1.628;2023-03-31T16:17:54;22.30;68.80
40738;DHT22;54759;48.094;-1.628;2023-03-31T16:20:59;22.00;68.60
40738;DHT22;54759;48.094;-1.628;2023-03-31T16:24:03;22.20;68.80
40738;DHT22;54759;48.094;-1.628;2023-03-31T16:27:06;22.20;68.80
40738;DHT22;54759;48.094;-1.628;2023-03-31T16:30:12;22.10;68.00
40738;DHT22;54759;48.094;-1.628;2023-03-31T16:33:15;22.10;68.80
40738;DHT22;54759;48.094;-1.628;2023-03-31T16:36:20;21.90;68.50
40738;DHT22;54759;48.094;-1.628;2023-03-31T16:39:25;21.90;68.70
40738;DHT22;54759;48.094;-1.628;2023-03-31T16:42:27;22.30;69.00
40738;DHT22;54759;48.094;-1.628;2023-03-31T16:45:29;22.40;69.30
40738;DHT22;54759;48.094;-1.628;2023-03-31T16:48:31;22.20;69.60
40738;DHT22;54759;48.094;-1.628;2023-03-31T16:51:33;22.00;68.90
40738;DHT22;54759;48.094;-1.628;2023-03-31T16:54:35;22.20;68.40
40738;DHT22;54759;48.094;-1.628;2023-03-31T16:57:37;22.00;69.10
40738;DHT22;54759;48.094;-1.628;2023-03-31T17:00:39;22.20;68.70
40738;DHT22;54759;48.094;-1.628;2023-03-31T17:03:41;22.10;68.60
40738;DHT22;54759;48.094;-1.628;2023-03-31T17:06:44;22.20;68.80
40738;DHT22;54759;48.094;-1.628;2023-03-31T17:09:45;22.20;68.60
40738;DHT22;54759;48.094;-1.628;2023-03-31T17:12:46;22.10;68.30
40738;DHT22;54759;48.094;-1.628;2023-03-31T17:15:48;22.60;68.90
40738;DHT22;54759;48.094;-1.628;2023-03-31T17:18:54;22.10;68.00
40738;DHT22;54759;48.094;-1.628;2023-03-31T17:21:55;22.20;68.10
40738;DHT22;54759;48.094;-1.628;2023-03-31T17:25:02;22.20;68.20
40738;DHT22;54759;48.094;-1.628;2023-03-31T17:28:07;22.20;67.90
40738;DHT22;54759;48.094;-1.628;2023-03-31T17:31:10;22.20;67.70
40738;DHT22;54759;48.094;-1.628;2023-03-31T17:34:12;22.90;68.30
40738;DHT22;54759;48.094;-1.628;2023-03-31T17:37:15;22.50;67.70
40738;DHT22;54759;48.094;-1.628;2023-03-31T17:40:17;22.10;67.50
40738;DHT22;54759;48.094;-1.628;2023-03-31T17:43:18;22.20;67.50
40738;DHT22;54759;48.094;-1.628;2023-03-31T17:46:20;22.20;67.50
40738;DHT22;54759;48.094;-1.628;2023-03-31T17:49:23;22.10;67.70
40738;DHT22;54759;48.094;-1.628;2023-03-31T17:52:25;22.30;67.60
40738;DHT22;54759;48.094;-1.628;2023-03-31T17:55:29;22.30;67.30
40738;DHT22;54759;48.094;-1.628;2023-03-31T17:58:33;22.20;67.40
40738;DHT22;54759;48.094;-1.628;2023-03-31T18:01:35;22.30;67.20
40738;DHT22;54759;48.094;-1.628;2023-03-31T18:04:40;22.30;67.40
40738;DHT22;54759;48.094;-1.628;2023-03-31T18:07:42;22.30;67.20
40738;DHT22;54759;48.094;-1.628;2023-03-31T18:10:43;22.10;67.40
40738;DHT22;54759;48.094;-1.628;2023-03-31T18:13:45;22.10;67.50
40738;DHT22;54759;48.094;-1.628;2023-03-31T18:16:47;22.20;67.60
40738;DHT22;54759;48.094;-1.628;2023-03-31T18:19:49;22.10;67.80
40738;DHT22;54759;48.094;-1.628;2023-03-31T18:22:53;22.20;67.70
40738;DHT22;54759;48.094;-1.628;2023-03-31T18:25:57;22.20;67.40
40738;DHT22;54759;48.094;-1.628;2023-03-31T18:29:01;22.00;67.70
40738;DHT22;54759;48.094;-1.628;2023-03-31T18:32:06;22.20;67.80
40738;DHT22;54759;48.094;-1.628;2023-03-31T18:35:08;22.20;67.70
40738;DHT22;54759;48.094;-1.628;2023-03-31T18:38:10;22.20;68.00
40738;DHT22;54759;48.094;-1.628;2023-03-31T18:41:12;22.00;67.80
40738;DHT22;54759;48.094;-1.628;2023-03-31T18:44:14;22.00;67.90
40738;DHT22;54759;48.094;-1.628;2023-03-31T18:47:19;22.00;67.50
40738;DHT22;54759;48.094;-1.628;2023-03-31T18:50:20;22.00;67.40
40738;DHT22;54759;48.094;-1.628;2023-03-31T18:53:23;21.90;67.40
40738;DHT22;54759;48.094;-1.628;2023-03-31T18:56:25;22.00;67.40
40738;DHT22;54759;48.094;-1.628;2023-03-31T18:59:26;22.30;67.80
40738;DHT22;54759;48.094;-1.628;2023-03-31T19:02:29;22.10;67.80
40738;DHT22;54759;48.094;-1.628;2023-03-31T19:05:31;22.40;67.60
40738;DHT22;54759;48.094;-1.628;2023-03-31T19:08:34;22.10;67.60
40738;DHT22;54759;48.094;-1.628;2023-03-31T19:14:40;22.10;63.70
40738;DHT22;54759;48.094;-1.628;2023-03-31T19:17:45;22.10;67.50
40738;DHT22;54759;48.094;-1.628;2023-03-31T19:20:47;21.80;67.40
40738;DHT22;54759;48.094;-1.628;2023-03-31T19:23:51;22.10;67.80
40738;DHT22;54759;48.094;-1.628;2023-03-31T19:26:53;22.10;67.70
40738;DHT22;54759;48.094;-1.628;2023-03-31T19:29:57;22.10;67.60
40738;DHT22;54759;48.094;-1.628;2023-03-31T19:32:59;22.00;67.80
40738;DHT22;54759;48.094;-1.628;2023-03-31T19:36:03;22.00;67.60
40738;DHT22;54759;48.094;-1.628;2023-03-31T19:39:05;22.00;67.70
40738;DHT22;54759;48.094;-1.628;2023-03-31T19:42:07;22.00;67.70